sensor_id;sensor_type;location;lat;lon;timestamp;P1;durP1;ratioP1;P2;durP2;ratioP2
4569;SDS011;2297;51.442;6.996;2023-09-18T00:02:05;8.10;;;4.57;;
4569;SDS011;2297;51.442;6.996;2023-09-18T00:04:33;9.45;;;4.85;;
4569;SDS011;2297;51.442;6.996;2023-09-18T00:07:00;8.60;;;5.05;;
4569;SDS011;2297;51.442;6.996;2023-09-18T00:09:26;9.57;;;4.90;;
4569;SDS011;2297;51.442;6.996;2023-09-18T00:11:53;11.85;;;5.50;;
4569;SDS011;2297;51.442;6.996;2023-09-18T00:14:21;9.15;;;4.68;;
4569;SDS011;2297;51.442;6.996;2023-09-18T00:16:47;8.60;;;5.05;;
4569;SDS011;2297;51.442;6.996;2023-09-18T00:19:14;10.73;;;5.00;;
4569;SDS011;2297;51.442;6.996;2023-09-18T00:21:41;6.63;;;4.70;;
4569;SDS011;2297;51.442;6.996;2023-09-18T00:24:07;10.30;;;5.18;;
4569;SDS011;2297;51.442;6.996;2023-09-18T00:26:34;7.95;;;4.90;;
4569;SDS011;2297;51.442;6.996;2023-09-18T00:29:00;9.82;;;5.13;;
4569;SDS011;2297;51.442;6.996;2023-09-18T00:31:29;8.05;;;4.60;;
4569;SDS011;2297;51.442;6.996;2023-09-18T00:33:56;9.90;;;4.82;;
4569;SDS011;2297;51.442;6.996;2023-09-18T00:36:23;6.60;;;4.65;;
4569;SDS011;2297;51.442;6.996;2023-09-18T00:38:49;13.00;;;5.20;;
4569;SDS011;2297;51.442;6.996;2023-09-18T00:41:16;9.07;;;5.10;;
4569;SDS011;2297;51.442;6.996;2023-09-18T00:43:42;10.07;;;4.90;;
4569;SDS011;2297;51.442;6.996;2023-09-18T00:46:09;10.73;;;4.88;;
4569;SDS011;2297;51.442;6.996;2023-09-18T00:48:37;8.52;;;4.78;;
4569;SDS011;2297;51.442;6.996;2023-09-18T00:51:03;10.00;;;5.00;;
4569;SDS011;2297;51.442;6.996;2023-09-18T00:53:30;10.15;;;4.85;;
4569;SDS011;2297;51.442;6.996;2023-09-18T00:55:57;8.80;;;4.88;;
4569;SDS011;2297;51.442;6.996;2023-09-18T00:58:26;7.05;;;4.93;;
4569;SDS011;2297;51.442;6.996;2023-09-18T01:00:53;10.35;;;4.85;;
4569;SDS011;2297;51.442;6.996;2023-09-18T01:03:20;18.73;;;5.43;;
4569;SDS011;2297;51.442;6.996;2023-09-18T01:05:51;8.13;;;4.60;;
4569;SDS011;2297;51.442;6.996;2023-09-18T01:08:19;8.30;;;4.72;;
4569;SDS011;2297;51.442;6.996;2023-09-18T01:10:47;8.23;;;4.55;;
4569;SDS011;2297;51.442;6.996;2023-09-18T01:13:23;8.55;;;5.22;;
4569;SDS011;2297;51.442;6.996;2023-09-18T01:15:57;8.90;;;4.95;;
4569;SDS011;2297;51.442;6.996;2023-09-18T01:18:34;13.35;;;5.18;;
4569;SDS011;2297;51.442;6.996;2023-09-18T01:21:02;11.02;;;5.50;;
4569;SDS011;2297;51.442;6.996;2023-09-18T01:23:30;8.48;;;5.13;;
4569;SDS011;2297;51.442;6.996;2023-09-18T01:25:57;17.63;;;5.20;;
4569;SDS011;2297;51.442;6.996;2023-09-18T01:28:23;8.63;;;5.70;;
4569;SDS011;2297;51.442;6.996;2023-09-18T01:30:50;6.72;;;4.85;;
4569;SDS011;2297;51.442;6.996;2023-09-18T01:33:16;23.05;;;5.55;;
4569;SDS011;2297;51.442;6.996;2023-09-18T01:35:45;10.23;;;5.38;;
4569;SDS011;2297;51.442;6.996;2023-09-18T01:38:12;6.97;;;3.97;;
4569;SDS011;2297;51.442;6.996;2023-09-18T01:40:40;9.38;;;4.35;;
4569;SDS011;2297;51.442;6.996;2023-09-18T01:43:08;10.35;;;4.25;;
4569;SDS011;2297;51.442;6.996;2023-09-18T01:45:34;8.98;;;4.80;;
4569;SDS011;2297;51.442;6.996;2023-09-18T01:48:03;5.65;;;4.25;;
4569;SDS011;2297;51.442;6.996;2023-09-18T01:50:31;7.93;;;4.30;;
4569;SDS011;2297;51.442;6.996;2023-09-18T01:52:58;7.05;;;4.30;;
4569;SDS011;2297;51.442;6.996;2023-09-18T01:55:25;8.40;;;3.92;;
4569;SDS011;2297;51.442;6.996;2023-09-18T01:57:54;9.30;;;4.13;;
4569;SDS011;2297;51.442;6.996;2023-09-18T02:00:21;9.20;;;4.50;;
4569;SDS011;2297;51.442;6.996;2023-09-18T02:02:48;6.25;;;4.05;;
4569;SDS011;2297;51.442;6.996;2023-09-18T02:05:14;9.50;;;4.47;;
4569;SDS011;2297;51.442;6.996;2023-09-18T02:07:41;8.43;;;4.55;;
4569;SDS011;2297;51.442;6.996;2023-09-18T02:10:08;9.38;;;4.13;;
4569;SDS011;2297;51.442;6.996;2023-09-18T02:12:37;7.97;;;4.10;;
4569;SDS011;2297;51.442;6.996;2023-09-18T02:15:06;11.77;;;4.40;;
4569;SDS011;2297;51.442;6.996;2023-09-18T02:17:35;8.00;;;4.43;;
4569;SDS011;2297;51.442;6.996;2023-09-18T02:20:02;8.65;;;4.00;;
4569;SDS011;2297;51.442;6.996;2023-09-18T02:22:36;8.93;;;4.10;;
4569;SDS011;2297;51.442;6.996;2023-09-18T02:25:03;9.45;;;3.92;;
4569;SDS011;2297;51.442;6.996;2023-09-18T02:27:30;11.65;;;4.93;;
4569;SDS011;2297;51.442;6.996;2023-09-18T02:29:57;10.93;;;4.63;;
4569;SDS011;2297;51.442;6.996;2023-09-18T02:32:25;6.97;;;3.78;;
4569;SDS011;2297;51.442;6.996;2023-09-18T02:34:52;12.18;;;4.45;;
4569;SDS011;2297;51.442;6.996;2023-09-18T02:37:18;10.02;;;4.55;;
4569;SDS011;2297;51.442;6.996;2023-09-18T02:39:45;6.57;;;4.03;;
4569;SDS011;2297;51.442;6.996;2023-09-18T02:42:11;7.60;;;4.38;;
4569;SDS011;2297;51.442;6.996;2023-09-18T02:44:38;10.23;;;4.50;;
4569;SDS011;2297;51.442;6.996;2023-09-18T02:47:05;6.50;;;4.20;;
4569;SDS011;2297;51.442;6.996;2023-09-18T02:49:33;5.97;;;3.83;;
4569;SDS011;2297;51.442;6.996;2023-09-18T02:51:59;7.45;;;4.10;;
4569;SDS011;2297;51.442;6.996;2023-09-18T02:54:26;13.27;;;4.18;;
4569;SDS011;2297;51.442;6.996;2023-09-18T02:56:53;9.55;;;4.60;;
4569;SDS011;2297;51.442;6.996;2023-09-18T02:59:19;7.00;;;3.78;;
4569;SDS011;2297;51.442;6.996;2023-09-18T03:01:46;9.30;;;4.20;;
4569;SDS011;2297;51.442;6.996;2023-09-18T03:04:12;12.52;;;4.30;;
4569;SDS011;2297;51.442;6.996;2023-09-18T03:06:40;8.95;;;4.10;;
4569;SDS011;2297;51.442;6.996;2023-09-18T03:09:07;8.25;;;3.90;;
4569;SDS011;2297;51.442;6.996;2023-09-18T03:11:33;11.05;;;4.00;;
4569;SDS011;2297;51.442;6.996;2023-09-18T03:14:00;6.47;;;4.07;;
4569;SDS011;2297;51.442;6.996;2023-09-18T03:16:27;11.70;;;4.00;;
4569;SDS011;2297;51.442;6.996;2023-09-18T03:18:53;6.65;;;3.50;;
4569;SDS011;2297;51.442;6.996;2023-09-18T03:21:20;8.95;;;3.95;;
4569;SDS011;2297;51.442;6.996;2023-09-18T03:23:48;8.95;;;3.88;;
4569;SDS011;2297;51.442;6.996;2023-09-18T03:26:15;10.20;;;3.80;;
4569;SDS011;2297;51.442;6.996;2023-09-18T03:28:41;6.43;;;3.60;;
4569;SDS011;2297;51.442;6.996;2023-09-18T03:31:08;8.45;;;3.40;;
4569;SDS011;2297;51.442;6.996;2023-09-18T03:33:35;9.68;;;3.72;;
4569;SDS011;2297;51.442;6.996;2023-09-18T03:36:01;6.35;;;3.28;;
4569;SDS011;2297;51.442;6.996;2023-09-18T03:38:29;7.22;;;4.20;;
4569;SDS011;2297;51.442;6.996;2023-09-18T03:41:00;11.60;;;3.95;;
4569;SDS011;2297;51.442;6.996;2023-09-18T03:43:27;14.25;;;4.07;;
4569;SDS011;2297;51.442;6.996;2023-09-18T03:45:53;10.45;;;3.50;;
4569;SDS011;2297;51.442;6.996;2023-09-18T03:48:20;8.18;;;3.58;;
4569;SDS011;2297;51.442;6.996;2023-09-18T03:50:47;13.07;;;4.20;;
4569;SDS011;2297;51.442;6.996;2023-09-18T03:53:14;6.07;;;3.63;;
4569;SDS011;2297;51.442;6.996;2023-09-18T03:55:40;6.32;;;3.78;;
4569;SDS011;2297;51.442;6.996;2023-09-18T03:58:08;9.63;;;4.00;;
4569;SDS011;2297;51.442;6.996;2023-09-18T04:00:35;8.13;;;3.67;;
4569;SDS011;2297;51.442;6.996;2023-09-18T04:03:02;9.90;;;3.55;;
4569;SDS011;2297;51.442;6.996;2023-09-18T04:05:29;9.32;;;3.85;;
4569;SDS011;2297;51.442;6.996;2023-09-18T04:07:56;10.38;;;3.78;;
4569;SDS011;2297;51.442;6.996;2023-09-18T04:10:22;9.85;;;4.00;;
4569;SDS011;2297;51.442;6.996;2023-09-18T04:12:49;7.95;;;4.03;;
4569;SDS011;2297;51.442;6.996;2023-09-18T04:15:18;11.00;;;3.78;;
4569;SDS011;2297;51.442;6.996;2023-09-18T04:17:45;7.53;;;3.80;;
4569;SDS011;2297;51.442;6.996;2023-09-18T04:20:11;14.50;;;3.85;;
4569;SDS011;2297;51.442;6.996;2023-09-18T04:22:42;10.48;;;4.00;;
4569;SDS011;2297;51.442;6.996;2023-09-18T04:25:09;10.55;;;3.83;;
4569;SDS011;2297;51.442;6.996;2023-09-18T04:27:35;10.93;;;4.65;;
4569;SDS011;2297;51.442;6.996;2023-09-18T04:30:02;9.60;;;4.22;;
4569;SDS011;2297;51.442;6.996;2023-09-18T04:32:31;10.65;;;4.13;;
4569;SDS011;2297;51.442;6.996;2023-09-18T04:34:57;12.27;;;4.65;;
4569;SDS011;2297;51.442;6.996;2023-09-18T04:37:24;8.52;;;3.63;;
4569;SDS011;2297;51.442;6.996;2023-09-18T04:39:50;8.30;;;4.03;;
4569;SDS011;2297;51.442;6.996;2023-09-18T04:42:17;12.20;;;3.78;;
4569;SDS011;2297;51.442;6.996;2023-09-18T04:44:44;13.80;;;4.13;;
4569;SDS011;2297;51.442;6.996;2023-09-18T04:47:11;9.32;;;4.28;;
4569;SDS011;2297;51.442;6.996;2023-09-18T04:49:39;12.07;;;4.05;;
4569;SDS011;2297;51.442;6.996;2023-09-18T04:52:05;10.20;;;3.90;;
4569;SDS011;2297;51.442;6.996;2023-09-18T04:54:32;10.25;;;3.63;;
4569;SDS011;2297;51.442;6.996;2023-09-18T04:56:59;8.43;;;3.78;;
4569;SDS011;2297;51.442;6.996;2023-09-18T04:59:25;8.68;;;3.72;;
4569;SDS011;2297;51.442;6.996;2023-09-18T05:01:52;10.98;;;4.20;;
4569;SDS011;2297;51.442;6.996;2023-09-18T05:04:19;11.70;;;4.22;;
4569;SDS011;2297;51.442;6.996;2023-09-18T05:06:47;9.05;;;4.25;;
4569;SDS011;2297;51.442;6.996;2023-09-18T05:09:14;8.40;;;3.58;;
4569;SDS011;2297;51.442;6.996;2023-09-18T05:11:40;8.93;;;3.85;;
4569;SDS011;2297;51.442;6.996;2023-09-18T05:14:08;12.75;;;3.83;;
4569;SDS011;2297;51.442;6.996;2023-09-18T05:16:34;12.45;;;3.78;;
4569;SDS011;2297;51.442;6.996;2023-09-18T05:19:01;9.55;;;4.32;;
4569;SDS011;2297;51.442;6.996;2023-09-18T05:21:27;9.98;;;4.00;;
4569;SDS011;2297;51.442;6.996;2023-09-18T05:23:56;10.20;;;4.07;;
4569;SDS011;2297;51.442;6.996;2023-09-18T05:26:23;9.00;;;4.50;;
4569;SDS011;2297;51.442;6.996;2023-09-18T05:28:50;10.13;;;3.90;;
4569;SDS011;2297;51.442;6.996;2023-09-18T05:31:18;14.07;;;3.85;;
4569;SDS011;2297;51.442;6.996;2023-09-18T05:33:45;11.23;;;4.05;;
4569;SDS011;2297;51.442;6.996;2023-09-18T05:36:12;11.35;;;4.03;;
4569;SDS011;2297;51.442;6.996;2023-09-18T05:38:39;11.20;;;4.07;;
4569;SDS011;2297;51.442;6.996;2023-09-18T05:41:07;11.05;;;4.63;;
4569;SDS011;2297;51.442;6.996;2023-09-18T05:43:34;16.98;;;4.90;;
4569;SDS011;2297;51.442;6.996;2023-09-18T05:46:01;8.20;;;4.30;;
4569;SDS011;2297;51.442;6.996;2023-09-18T05:48:28;11.23;;;4.25;;
4569;SDS011;2297;51.442;6.996;2023-09-18T05:50:55;11.38;;;3.80;;
4569;SDS011;2297;51.442;6.996;2023-09-18T05:53:22;9.88;;;4.03;;
4569;SDS011;2297;51.442;6.996;2023-09-18T05:55:49;13.85;;;4.40;;
4569;SDS011;2297;51.442;6.996;2023-09-18T05:58:17;9.80;;;4.60;;
4569;SDS011;2297;51.442;6.996;2023-09-18T06:00:47;12.38;;;4.45;;
4569;SDS011;2297;51.442;6.996;2023-09-18T06:03:14;8.18;;;4.20;;
4569;SDS011;2297;51.442;6.996;2023-09-18T06:05:43;9.80;;;4.10;;
4569;SDS011;2297;51.442;6.996;2023-09-18T06:08:10;13.10;;;3.97;;
4569;SDS011;2297;51.442;6.996;2023-09-18T06:10:37;11.35;;;3.90;;
4569;SDS011;2297;51.442;6.996;2023-09-18T06:13:04;17.17;;;4.43;;
4569;SDS011;2297;51.442;6.996;2023-09-18T06:15:32;12.18;;;3.90;;
4569;SDS011;2297;51.442;6.996;2023-09-18T06:17:59;9.05;;;4.20;;
4569;SDS011;2297;51.442;6.996;2023-09-18T06:20:25;10.60;;;3.85;;
4569;SDS011;2297;51.442;6.996;2023-09-18T06:22:52;10.38;;;4.50;;
4569;SDS011;2297;51.442;6.996;2023-09-18T06:25:19;10.00;;;3.72;;
4569;SDS011;2297;51.442;6.996;2023-09-18T06:27:45;12.90;;;4.00;;
4569;SDS011;2297;51.442;6.996;2023-09-18T06:30:12;10.50;;;3.70;;
4569;SDS011;2297;51.442;6.996;2023-09-18T06:32:40;9.48;;;3.90;;
4569;SDS011;2297;51.442;6.996;2023-09-18T06:35:08;9.32;;;3.65;;
4569;SDS011;2297;51.442;6.996;2023-09-18T06:37:34;9.25;;;3.80;;
4569;SDS011;2297;51.442;6.996;2023-09-18T06:40:01;10.07;;;3.55;;
4569;SDS011;2297;51.442;6.996;2023-09-18T06:42:30;12.68;;;3.70;;
4569;SDS011;2297;51.442;6.996;2023-09-18T06:44:56;8.27;;;3.40;;
4569;SDS011;2297;51.442;6.996;2023-09-18T06:47:23;6.85;;;3.30;;
4569;SDS011;2297;51.442;6.996;2023-09-18T06:49:51;8.35;;;3.80;;
4569;SDS011;2297;51.442;6.996;2023-09-18T06:52:18;13.63;;;3.70;;
4569;SDS011;2297;51.442;6.996;2023-09-18T06:54:44;9.07;;;3.63;;
4569;SDS011;2297;51.442;6.996;2023-09-18T06:57:11;10.27;;;3.72;;
4569;SDS011;2297;51.442;6.996;2023-09-18T06:59:38;12.13;;;3.17;;
4569;SDS011;2297;51.442;6.996;2023-09-18T07:02:04;8.05;;;2.90;;
4569;SDS011;2297;51.442;6.996;2023-09-18T07:04:32;10.23;;;3.60;;
4569;SDS011;2297;51.442;6.996;2023-09-18T07:07:00;9.40;;;2.95;;
4569;SDS011;2297;51.442;6.996;2023-09-18T07:09:26;8.75;;;3.20;;
4569;SDS011;2297;51.442;6.996;2023-09-18T07:11:53;4.97;;;2.70;;
4569;SDS011;2297;51.442;6.996;2023-09-18T07:14:20;12.02;;;3.33;;
4569;SDS011;2297;51.442;6.996;2023-09-18T07:16:47;6.07;;;2.80;;
4569;SDS011;2297;51.442;6.996;2023-09-18T07:19:14;12.07;;;3.17;;
4569;SDS011;2297;51.442;6.996;2023-09-18T07:21:42;8.63;;;3.05;;
4569;SDS011;2297;51.442;6.996;2023-09-18T07:24:11;7.57;;;3.10;;
4569;SDS011;2297;51.442;6.996;2023-09-18T07:26:43;13.20;;;3.70;;
4569;SDS011;2297;51.442;6.996;2023-09-18T07:29:11;9.13;;;2.72;;
4569;SDS011;2297;51.442;6.996;2023-09-18T07:31:38;9.13;;;2.90;;
4569;SDS011;2297;51.442;6.996;2023-09-18T07:34:05;6.78;;;2.78;;
4569;SDS011;2297;51.442;6.996;2023-09-18T07:36:31;10.77;;;3.28;;
4569;SDS011;2297;51.442;6.996;2023-09-18T07:38:58;6.07;;;2.70;;
4569;SDS011;2297;51.442;6.996;2023-09-18T07:41:26;10.43;;;2.72;;
4569;SDS011;2297;51.442;6.996;2023-09-18T07:43:53;6.45;;;2.55;;
4569;SDS011;2297;51.442;6.996;2023-09-18T07:46:19;7.10;;;2.72;;
4569;SDS011;2297;51.442;6.996;2023-09-18T07:48:46;11.82;;;2.92;;
4569;SDS011;2297;51.442;6.996;2023-09-18T07:51:12;5.45;;;2.53;;
4569;SDS011;2297;51.442;6.996;2023-09-18T07:53:41;7.82;;;2.65;;
4569;SDS011;2297;51.442;6.996;2023-09-18T07:56:08;6.30;;;3.10;;
4569;SDS011;2297;51.442;6.996;2023-09-18T07:58:37;6.38;;;2.58;;
4569;SDS011;2297;51.442;6.996;2023-09-18T08:01:03;5.80;;;2.70;;
4569;SDS011;2297;51.442;6.996;2023-09-18T08:03:31;7.85;;;2.60;;
4569;SDS011;2297;51.442;6.996;2023-09-18T08:05:58;4.93;;;2.22;;
4569;SDS011;2297;51.442;6.996;2023-09-18T08:08:24;5.25;;;2.30;;
4569;SDS011;2297;51.442;6.996;2023-09-18T08:10:51;6.90;;;2.22;;
4569;SDS011;2297;51.442;6.996;2023-09-18T08:13:18;6.90;;;2.38;;
4569;SDS011;2297;51.442;6.996;2023-09-18T08:15:47;4.30;;;2.38;;
4569;SDS011;2297;51.442;6.996;2023-09-18T08:18:13;7.85;;;2.25;;
4569;SDS011;2297;51.442;6.996;2023-09-18T08:20:40;5.90;;;1.90;;
4569;SDS011;2297;51.442;6.996;2023-09-18T08:23:07;3.90;;;2.10;;
4569;SDS011;2297;51.442;6.996;2023-09-18T08:25:34;5.32;;;2.22;;
4569;SDS011;2297;51.442;6.996;2023-09-18T08:28:01;4.32;;;2.20;;
4569;SDS011;2297;51.442;6.996;2023-09-18T08:30:28;6.05;;;2.47;;
4569;SDS011;2297;51.442;6.996;2023-09-18T08:32:56;5.03;;;2.15;;
4569;SDS011;2297;51.442;6.996;2023-09-18T08:35:23;5.25;;;1.95;;
4569;SDS011;2297;51.442;6.996;2023-09-18T08:37:54;3.85;;;1.60;;
4569;SDS011;2297;51.442;6.996;2023-09-18T08:40:21;5.50;;;2.10;;
4569;SDS011;2297;51.442;6.996;2023-09-18T08:42:51;3.97;;;1.70;;
4569;SDS011;2297;51.442;6.996;2023-09-18T08:45:22;4.38;;;2.13;;
4569;SDS011;2297;51.442;6.996;2023-09-18T08:47:51;5.25;;;2.10;;
4569;SDS011;2297;51.442;6.996;2023-09-18T08:50:21;5.32;;;1.77;;
4569;SDS011;2297;51.442;6.996;2023-09-18T08:52:50;3.55;;;1.92;;
4569;SDS011;2297;51.442;6.996;2023-09-18T08:55:17;5.30;;;2.00;;
4569;SDS011;2297;51.442;6.996;2023-09-18T08:57:44;2.85;;;1.65;;
4569;SDS011;2297;51.442;6.996;2023-09-18T09:00:15;5.85;;;2.17;;
4569;SDS011;2297;51.442;6.996;2023-09-18T09:02:43;7.65;;;2.10;;
4569;SDS011;2297;51.442;6.996;2023-09-18T09:05:09;4.75;;;1.75;;
4569;SDS011;2297;51.442;6.996;2023-09-18T09:10:22;4.40;;;2.20;;
4569;SDS011;2297;51.442;6.996;2023-09-18T09:12:54;5.90;;;1.85;;
4569;SDS011;2297;51.442;6.996;2023-09-18T09:15:22;11.02;;;2.10;;
4569;SDS011;2297;51.442;6.996;2023-09-18T09:17:51;4.97;;;1.75;;
4569;SDS011;2297;51.442;6.996;2023-09-18T09:20:18;3.45;;;1.85;;
4569;SDS011;2297;51.442;6.996;2023-09-18T09:22:45;4.00;;;1.65;;
4569;SDS011;2297;51.442;6.996;2023-09-18T09:25:23;8.50;;;1.55;;
4569;SDS011;2297;51.442;6.996;2023-09-18T09:27:52;2.97;;;1.50;;
4569;SDS011;2297;51.442;6.996;2023-09-18T09:30:20;1.63;;;1.33;;
4569;SDS011;2297;51.442;6.996;2023-09-18T09:32:48;2.95;;;1.67;;
4569;SDS011;2297;51.442;6.996;2023-09-18T09:35:21;5.03;;;1.70;;
4569;SDS011;2297;51.442;6.996;2023-09-18T09:37:48;3.75;;;1.50;;
4569;SDS011;2297;51.442;6.996;2023-09-18T09:40:16;4.95;;;2.10;;
4569;SDS011;2297;51.442;6.996;2023-09-18T09:42:47;1.80;;;1.60;;
4569;SDS011;2297;51.442;6.996;2023-09-18T09:45:14;5.97;;;1.63;;
4569;SDS011;2297;51.442;6.996;2023-09-18T09:47:42;7.32;;;2.00;;
4569;SDS011;2297;51.442;6.996;2023-09-18T09:50:10;4.45;;;1.65;;
4569;SDS011;2297;51.442;6.996;2023-09-18T09:52:43;4.72;;;1.83;;
4569;SDS011;2297;51.442;6.996;2023-09-18T09:55:17;2.25;;;1.45;;
4569;SDS011;2297;51.442;6.996;2023-09-18T09:57:48;4.00;;;1.40;;
4569;SDS011;2297;51.442;6.996;2023-09-18T10:00:15;2.08;;;1.65;;
4569;SDS011;2297;51.442;6.996;2023-09-18T10:02:53;4.25;;;1.67;;
4569;SDS011;2297;51.442;6.996;2023-09-18T10:05:22;3.45;;;1.50;;
4569;SDS011;2297;51.442;6.996;2023-09-18T10:07:53;5.10;;;1.88;;
4569;SDS011;2297;51.442;6.996;2023-09-18T10:10:23;5.07;;;1.77;;
4569;SDS011;2297;51.442;6.996;2023-09-18T10:12:53;4.90;;;1.90;;
4569;SDS011;2297;51.442;6.996;2023-09-18T10:17:55;4.90;;;1.70;;
4569;SDS011;2297;51.442;6.996;2023-09-18T10:20:24;2.92;;;1.63;;
4569;SDS011;2297;51.442;6.996;2023-09-18T10:22:56;4.45;;;1.73;;
4569;SDS011;2297;51.442;6.996;2023-09-18T10:25:26;3.22;;;1.58;;
4569;SDS011;2297;51.442;6.996;2023-09-18T10:27:58;3.90;;;1.85;;
4569;SDS011;2297;51.442;6.996;2023-09-18T10:30:29;3.03;;;1.60;;
4569;SDS011;2297;51.442;6.996;2023-09-18T10:32:59;3.50;;;1.63;;
4569;SDS011;2297;51.442;6.996;2023-09-18T10:35:26;3.95;;;1.90;;
4569;SDS011;2297;51.442;6.996;2023-09-18T10:37:54;4.20;;;2.05;;
4569;SDS011;2297;51.442;6.996;2023-09-18T10:40:21;6.35;;;2.08;;
4569;SDS011;2297;51.442;6.996;2023-09-18T10:42:48;4.95;;;1.73;;
4569;SDS011;2297;51.442;6.996;2023-09-18T10:45:19;4.35;;;1.52;;
4569;SDS011;2297;51.442;6.996;2023-09-18T10:47:46;4.13;;;1.65;;
4569;SDS011;2297;51.442;6.996;2023-09-18T10:50:22;7.55;;;2.08;;
4569;SDS011;2297;51.442;6.996;2023-09-18T10:52:50;7.82;;;1.80;;
4569;SDS011;2297;51.442;6.996;2023-09-18T10:55:17;3.70;;;1.80;;
4569;SDS011;2297;51.442;6.996;2023-09-18T10:57:50;4.32;;;1.60;;
4569;SDS011;2297;51.442;6.996;2023-09-18T11:00:17;4.88;;;2.00;;
4569;SDS011;2297;51.442;6.996;2023-09-18T11:02:49;4.40;;;1.80;;
4569;SDS011;2297;51.442;6.996;2023-09-18T11:05:30;2.97;;;1.75;;
4569;SDS011;2297;51.442;6.996;2023-09-18T11:10:59;4.82;;;1.63;;
4569;SDS011;2297;51.442;6.996;2023-09-18T11:13:34;4.47;;;1.85;;
4569;SDS011;2297;51.442;6.996;2023-09-18T11:16:12;2.55;;;1.38;;
4569;SDS011;2297;51.442;6.996;2023-09-18T11:18:42;5.07;;;1.90;;
4569;SDS011;2297;51.442;6.996;2023-09-18T11:21:11;3.50;;;1.98;;
4569;SDS011;2297;51.442;6.996;2023-09-18T11:23:40;6.80;;;1.80;;
4569;SDS011;2297;51.442;6.996;2023-09-18T11:26:07;3.60;;;1.90;;
4569;SDS011;2297;51.442;6.996;2023-09-18T11:28:35;4.72;;;1.75;;
4569;SDS011;2297;51.442;6.996;2023-09-18T11:31:02;5.28;;;2.28;;
4569;SDS011;2297;51.442;6.996;2023-09-18T11:33:30;5.03;;;2.15;;
4569;SDS011;2297;51.442;6.996;2023-09-18T11:36:01;3.13;;;1.65;;
4569;SDS011;2297;51.442;6.996;2023-09-18T11:38:30;3.00;;;1.88;;
4569;SDS011;2297;51.442;6.996;2023-09-18T11:40:58;4.65;;;1.98;;
4569;SDS011;2297;51.442;6.996;2023-09-18T11:43:26;3.55;;;1.70;;
4569;SDS011;2297;51.442;6.996;2023-09-18T11:45:55;4.38;;;1.85;;
4569;SDS011;2297;51.442;6.996;2023-09-18T11:48:23;3.53;;;1.73;;
4569;SDS011;2297;51.442;6.996;2023-09-18T11:50:53;3.20;;;2.00;;
4569;SDS011;2297;51.442;6.996;2023-09-18T11:53:22;3.70;;;1.80;;
4569;SDS011;2297;51.442;6.996;2023-09-18T11:59:04;12.45;;;1.98;;
4569;SDS011;2297;51.442;6.996;2023-09-18T12:01:31;4.90;;;2.00;;
4569;SDS011;2297;51.442;6.996;2023-09-18T12:04:01;3.90;;;2.08;;
4569;SDS011;2297;51.442;6.996;2023-09-18T12:06:32;6.05;;;2.13;;
4569;SDS011;2297;51.442;6.996;2023-09-18T12:09:01;4.82;;;1.98;;
4569;SDS011;2297;51.442;6.996;2023-09-18T12:11:28;7.55;;;2.20;;
4569;SDS011;2297;51.442;6.996;2023-09-18T12:13:55;7.45;;;2.20;;
4569;SDS011;2297;51.442;6.996;2023-09-18T12:16:23;4.22;;;2.10;;
4569;SDS011;2297;51.442;6.996;2023-09-18T12:18:50;4.43;;;1.95;;
4569;SDS011;2297;51.442;6.996;2023-09-18T12:21:17;3.85;;;2.30;;
4569;SDS011;2297;51.442;6.996;2023-09-18T12:23:44;6.60;;;2.10;;
4569;SDS011;2297;51.442;6.996;2023-09-18T12:26:13;3.65;;;1.95;;
4569;SDS011;2297;51.442;6.996;2023-09-18T12:28:41;4.88;;;1.73;;
4569;SDS011;2297;51.442;6.996;2023-09-18T12:31:10;6.55;;;2.05;;
4569;SDS011;2297;51.442;6.996;2023-09-18T12:33:37;6.70;;;2.28;;
4569;SDS011;2297;51.442;6.996;2023-09-18T12:36:05;7.38;;;2.17;;
4569;SDS011;2297;51.442;6.996;2023-09-18T12:38:33;5.82;;;1.90;;
4569;SDS011;2297;51.442;6.996;2023-09-18T12:41:01;6.55;;;1.85;;
4569;SDS011;2297;51.442;6.996;2023-09-18T12:43:34;4.97;;;2.20;;
4569;SDS011;2297;51.442;6.996;2023-09-18T12:46:02;3.10;;;1.90;;
4569;SDS011;2297;51.442;6.996;2023-09-18T12:48:31;5.00;;;2.30;;
4569;SDS011;2297;51.442;6.996;2023-09-18T12:51:04;5.03;;;2.53;;
4569;SDS011;2297;51.442;6.996;2023-09-18T12:53:31;3.28;;;2.33;;
4569;SDS011;2297;51.442;6.996;2023-09-18T12:56:05;3.95;;;2.10;;
4569;SDS011;2297;51.442;6.996;2023-09-18T12:58:34;2.38;;;1.48;;
4569;SDS011;2297;51.442;6.996;2023-09-18T13:01:03;5.35;;;2.00;;
4569;SDS011;2297;51.442;6.996;2023-09-18T13:03:34;5.07;;;1.80;;
4569;SDS011;2297;51.442;6.996;2023-09-18T13:06:11;5.13;;;2.10;;
4569;SDS011;2297;51.442;6.996;2023-09-18T13:08:42;3.83;;;1.98;;
4569;SDS011;2297;51.442;6.996;2023-09-18T13:11:09;8.60;;;2.17;;
4569;SDS011;2297;51.442;6.996;2023-09-18T13:13:40;5.43;;;1.95;;
4569;SDS011;2297;51.442;6.996;2023-09-18T13:16:07;5.55;;;1.92;;
4569;SDS011;2297;51.442;6.996;2023-09-18T13:18:35;6.15;;;1.95;;
4569;SDS011;2297;51.442;6.996;2023-09-18T13:21:08;7.13;;;1.88;;
4569;SDS011;2297;51.442;6.996;2023-09-18T13:26:02;5.63;;;1.88;;
4569;SDS011;2297;51.442;6.996;2023-09-18T13:28:30;3.58;;;1.80;;
4569;SDS011;2297;51.442;6.996;2023-09-18T13:31:00;2.10;;;1.63;;
4569;SDS011;2297;51.442;6.996;2023-09-18T13:33:30;2.67;;;1.75;;
4569;SDS011;2297;51.442;6.996;2023-09-18T13:35:57;2.88;;;2.15;;
4569;SDS011;2297;51.442;6.996;2023-09-18T13:38:23;4.03;;;2.05;;
4569;SDS011;2297;51.442;6.996;2023-09-18T13:40:51;3.08;;;1.70;;
4569;SDS011;2297;51.442;6.996;2023-09-18T13:43:19;4.65;;;1.70;;
4569;SDS011;2297;51.442;6.996;2023-09-18T13:45:47;5.13;;;1.70;;
4569;SDS011;2297;51.442;6.996;2023-09-18T13:48:18;5.22;;;2.08;;
4569;SDS011;2297;51.442;6.996;2023-09-18T13:50:45;7.05;;;1.80;;
4569;SDS011;2297;51.442;6.996;2023-09-18T13:53:13;6.93;;;1.92;;
4569;SDS011;2297;51.442;6.996;2023-09-18T13:55:40;4.05;;;1.60;;
4569;SDS011;2297;51.442;6.996;2023-09-18T13:58:06;3.35;;;2.05;;
4569;SDS011;2297;51.442;6.996;2023-09-18T14:00:33;5.05;;;1.92;;
4569;SDS011;2297;51.442;6.996;2023-09-18T14:03:00;3.13;;;1.77;;
4569;SDS011;2297;51.442;6.996;2023-09-18T14:05:29;7.68;;;1.92;;
4569;SDS011;2297;51.442;6.996;2023-09-18T14:07:58;3.88;;;1.70;;
4569;SDS011;2297;51.442;6.996;2023-09-18T14:10:25;4.10;;;2.08;;
4569;SDS011;2297;51.442;6.996;2023-09-18T14:12:53;3.50;;;1.38;;
4569;SDS011;2297;51.442;6.996;2023-09-18T14:15:19;3.78;;;1.73;;
4569;SDS011;2297;51.442;6.996;2023-09-18T14:17:46;5.32;;;1.85;;
4569;SDS011;2297;51.442;6.996;2023-09-18T14:20:13;4.53;;;1.80;;
4569;SDS011;2297;51.442;6.996;2023-09-18T14:22:44;4.60;;;1.60;;
4569;SDS011;2297;51.442;6.996;2023-09-18T14:25:12;3.83;;;1.60;;
4569;SDS011;2297;51.442;6.996;2023-09-18T14:27:39;3.33;;;2.05;;
4569;SDS011;2297;51.442;6.996;2023-09-18T14:30:06;3.72;;;1.67;;
4569;SDS011;2297;51.442;6.996;2023-09-18T14:32:33;5.90;;;1.98;;
4569;SDS011;2297;51.442;6.996;2023-09-18T14:35:01;3.17;;;1.75;;
4569;SDS011;2297;51.442;6.996;2023-09-18T14:37:30;3.65;;;2.00;;
4569;SDS011;2297;51.442;6.996;2023-09-18T14:39:58;3.15;;;1.70;;
4569;SDS011;2297;51.442;6.996;2023-09-18T14:42:25;5.82;;;1.77;;
4569;SDS011;2297;51.442;6.996;2023-09-18T14:44:51;3.78;;;1.80;;
4569;SDS011;2297;51.442;6.996;2023-09-18T14:47:18;4.55;;;1.70;;
4569;SDS011;2297;51.442;6.996;2023-09-18T14:49:45;3.00;;;1.65;;
4569;SDS011;2297;51.442;6.996;2023-09-18T14:52:12;4.55;;;1.88;;
4569;SDS011;2297;51.442;6.996;2023-09-18T14:54:39;4.25;;;1.80;;
4569;SDS011;2297;51.442;6.996;2023-09-18T14:57:08;3.22;;;1.80;;
4569;SDS011;2297;51.442;6.996;2023-09-18T14:59:35;3.88;;;1.77;;
4569;SDS011;2297;51.442;6.996;2023-09-18T15:02:03;6.65;;;1.70;;
4569;SDS011;2297;51.442;6.996;2023-09-18T15:04:30;2.60;;;1.60;;
4569;SDS011;2297;51.442;6.996;2023-09-18T15:06:58;3.83;;;1.80;;
4569;SDS011;2297;51.442;6.996;2023-09-18T15:09:24;3.08;;;1.50;;
4569;SDS011;2297;51.442;6.996;2023-09-18T15:11:51;2.63;;;1.63;;
4569;SDS011;2297;51.442;6.996;2023-09-18T15:14:19;2.55;;;1.50;;
4569;SDS011;2297;51.442;6.996;2023-09-18T15:16:45;2.28;;;1.40;;
4569;SDS011;2297;51.442;6.996;2023-09-18T15:19:12;5.38;;;3.40;;
4569;SDS011;2297;51.442;6.996;2023-09-18T15:21:40;3.40;;;1.70;;
4569;SDS011;2297;51.442;6.996;2023-09-18T15:24:06;5.43;;;2.13;;
4569;SDS011;2297;51.442;6.996;2023-09-18T15:26:34;2.70;;;1.80;;
4569;SDS011;2297;51.442;6.996;2023-09-18T15:29:01;6.10;;;1.67;;
4569;SDS011;2297;51.442;6.996;2023-09-18T15:31:29;4.07;;;1.73;;